Aegina II — SW6459 — position and weather

sailwx.info

Track history (hours):
 
Tides and Currents Weather Stations Pressure Air Temp Water Temp Dewpoint Dewpoint Depression Visibility Wind Speed Wind Dir Waves Ship Positions

Aegina II

Last reported at 2018-Aug-19 14:20 UTC. Time now 2018-Aug-19 22:53 UTC.
Position N 37°45' E 023°25'.

Length 53 m; draft 5.5 m.

Type: Tanker. MMSI: 237096700.

Date/timePositionNaut miles runAvg speedWind from/ knotsBaromVisibWave heightAir tempDewpointWater temp
2018-Aug-19 14:20N 37°45' E 023°25'2 4.8
2018-Aug-19 14:00N 37°46' E 023°25'3 5.0
2018-Aug-19 13:30N 37°48' E 023°27'2 5.0
2018-Aug-19 13:00N 37°50' E 023°29'3 5.1
2018-Aug-19 12:30N 37°53' E 023°30'3 5.1
2018-Aug-19 12:00N 37°55' E 023°33'3 5.1
2018-Aug-19 11:30N 37°57' E 023°35'2 3.9
2018-Aug-19 11:00N 37°58' E 023°33'3 5.1
2018-Aug-19 10:30N 38°01' E 023°34'2 3.8
2018-Aug-19 09:58N 38°02' E 023°35'0 0.0
2018-Aug-19 09:28N 38°02' E 023°35'0 0.0
2018-Aug-19 08:58N 38°02' E 023°35'0 0.0
2018-Aug-19 08:29N 38°02' E 023°35'0 0.0
2018-Aug-19 08:00N 38°02' E 023°35'0 0.0
2018-Aug-19 07:27N 38°02' E 023°35'1 3.2
2018-Aug-19 07:00N 38°01' E 023°34'3 5.9
2018-Aug-19 06:30N 37°58' E 023°33'2 4.4
2018-Aug-19 06:00N 37°56' E 023°34'3 6.1
2018-Aug-19 05:30N 37°54' E 023°32'3 6.3
2018-Aug-19 05:00N 37°51' E 023°30'3 6.3
2018-Aug-19 04:30N 37°49' E 023°27'4 0.3
2018-Aug-18 14:08N 37°45' E 023°25'1 4.9
2018-Aug-18 14:00N 37°45' E 023°25'2 4.9
2018-Aug-18 13:31N 37°47' E 023°26'3 5.2
2018-Aug-18 13:01N 37°50' E 023°28'3 5.2
2018-Aug-18 12:30N 37°52' E 023°30'3 5.2
2018-Aug-18 12:00N 37°54' E 023°32'3 5.1
2018-Aug-18 11:30N 37°56' E 023°34'2 3.0
2018-Aug-18 11:00N 37°57' E 023°33'2 4.8
2018-Aug-18 10:30N 37°60' E 023°33'3 5.1
2018-Aug-18 10:00N 38°02' E 023°35'0 0.1
2018-Aug-18 07:12N 38°02' E 023°35'1 5.6
2018-Aug-18 07:00N 38°01' E 023°34'3 6.2
2018-Aug-18 06:30N 37°58' E 023°33'2 4.7
2018-Aug-18 06:00N 37°56' E 023°34'3 6.4
2018-Aug-18 05:30N 37°54' E 023°32'3 6.2
2018-Aug-18 05:00N 37°51' E 023°30'3 6.6
2018-Aug-18 04:30N 37°48' E 023°27'3 6.3
2018-Aug-18 04:00N 37°46' E 023°25'1 2.3
2018-Aug-18 03:26N 37°45' E 023°26'0 0.0
2018-Aug-18 02:57N 37°45' E 023°26'0 0.0
2018-Aug-18 02:24N 37°45' E 023°26'0 0.0
2018-Aug-18 02:00N 37°45' E 023°26'0 0.0
2018-Aug-18 01:22N 37°45' E 023°26'0 0.0
2018-Aug-18 00:58N 37°45' E 023°26'0 0.0
2018-Aug-18 00:29N 37°45' E 023°26'0 0.0
2018-Aug-17 22:17N 37°45' E 023°26'0 0.0
2018-Aug-17 21:59N 37°45' E 023°26'0 0.0
2018-Aug-17 21:15N 37°45' E 023°26'0 0.0
2018-Aug-17 21:00N 37°45' E 023°26'0 0.0
2018-Aug-17 20:28N 37°45' E 023°26'0 0.0
2018-Aug-17 19:58N 37°45' E 023°26'0 0.0
2018-Aug-17 19:30N 37°45' E 023°26'0 0.0
2018-Aug-17 19:00N 37°45' E 023°26'0 0.0
2018-Aug-17 18:22N 37°45' E 023°26'0 0.0
2018-Aug-17 17:58N 37°45' E 023°26'0 0.0
2018-Aug-17 17:31N 37°45' E 023°26'0 0.0
2018-Aug-17 17:00N 37°45' E 023°26'0 0.0
2018-Aug-17 16:26N 37°45' E 023°26'0 0.0
2018-Aug-17 15:59N 37°45' E 023°26'0 0.0
2018-Aug-17 15:26N 37°45' E 023°26'0 0.0
2018-Aug-17 14:56N 37°45' E 023°26'1 1.4
2018-Aug-17 14:00N 37°46' E 023°25'3 5.1
2018-Aug-17 13:30N 37°48' E 023°27'2 4.8
2018-Aug-17 13:01N 37°50' E 023°28'2 4.6
2018-Aug-17 12:30N 37°52' E 023°30'2 4.7
2018-Aug-17 12:01N 37°54' E 023°32'2 4.7
2018-Aug-17 11:31N 37°56' E 023°34'2 3.2
2018-Aug-17 11:00N 37°57' E 023°34'2 4.3
2018-Aug-17 10:30N 37°59' E 023°33'2 5.0
2018-Aug-17 10:01N 38°01' E 023°34'1 0.5
2018-Aug-17 07:56N 38°02' E 023°35'0 0.0
2018-Aug-17 07:24N 38°02' E 023°35'0 0.1
2018-Aug-17 07:01N 38°02' E 023°35'3 6.3
2018-Aug-17 06:31N 37°59' E 023°33'3 5.5
2018-Aug-17 06:01N 37°57' E 023°35'3 6.4
2018-Aug-17 05:30N 37°54' E 023°32'3 6.8
2018-Aug-17 05:01N 37°52' E 023°30'3 6.7
2018-Aug-17 04:31N 37°49' E 023°28'3 6.6
2018-Aug-17 04:01N 37°46' E 023°25'1 2.3
2018-Aug-17 03:21N 37°45' E 023°26'0 0.0
2018-Aug-17 00:25N 37°45' E 023°26'0 0.0
2018-Aug-16 23:55N 37°45' E 023°26'0 0.0
2018-Aug-16 23:30N 37°45' E 023°26'0 0.0
2018-Aug-16 23:00N 37°45' E 023°26'0 0.0
2018-Aug-16 22:24N 37°45' E 023°26'0 0.0
2018-Aug-16 21:48N 37°45' E 023°26'0 0.0
2018-Aug-16 21:29N 37°45' E 023°26'0 0.0
2018-Aug-16 17:41N 37°45' E 023°26'0 0.0
2018-Aug-16 17:17N 37°45' E 023°26'0 0.0
2018-Aug-16 17:00N 37°45' E 023°26'0 0.0
2018-Aug-16 16:18N 37°45' E 023°26'0 0.0
2018-Aug-16 15:44N 37°45' E 023°26'0 0.0
2018-Aug-16 15:29N 37°45' E 023°26'0 0.0
2018-Aug-16 14:38N 37°45' E 023°26'0 2.7
2018-Aug-16 14:30N 37°45' E 023°25'2 4.4
2018-Aug-16 14:00N 37°47' E 023°26'2 4.9
2018-Aug-16 13:30N 37°49' E 023°27'2 4.8
2018-Aug-16 13:00N 37°51' E 023°29'2 4.8
2018-Aug-16 12:30N 37°53' E 023°31'2 4.8
2018-Aug-16 12:00N 37°55' E 023°33'2 4.8
2018-Aug-16 11:30N 37°57' E 023°35'2 3.9
2018-Aug-16 11:00N 37°58' E 023°33'3 5.0
2018-Aug-16 10:30N 38°00' E 023°34'2 0.9
2018-Aug-16 08:08N 38°02' E 023°35'0 0.0
2018-Aug-16 07:59N 38°02' E 023°35'0 0.0
2018-Aug-16 07:28N 38°02' E 023°35'1 1.3
2018-Aug-16 07:01N 38°02' E 023°35'3 6.3
2018-Aug-16 06:30N 37°59' E 023°33'3 5.2
2018-Aug-16 06:00N 37°57' E 023°35'3 6.6
2018-Aug-16 05:31N 37°54' E 023°32'3 6.7
2018-Aug-16 05:01N 37°51' E 023°30'3 6.7
2018-Aug-16 04:31N 37°48' E 023°27'3 6.7
2018-Aug-16 04:01N 37°46' E 023°25'1 2.2
2018-Aug-16 03:28N 37°45' E 023°26'0 0.0
2018-Aug-16 02:58N 37°45' E 023°26'0 0.0
2018-Aug-16 02:25N 37°45' E 023°26'0 0.0
2018-Aug-16 01:58N 37°45' E 023°26'0 0.0
2018-Aug-16 01:25N 37°45' E 023°26'0 0.0
2018-Aug-16 00:57N 37°45' E 023°26'0 0.0
2018-Aug-16 00:28N 37°45' E 023°26'0 0.0
2018-Aug-15 23:58N 37°45' E 023°26'0 0.0
2018-Aug-15 23:17N 37°45' E 023°26'0 0.0
2018-Aug-15 21:23N 37°45' E 023°26'0 0.0
2018-Aug-15 20:57N 37°45' E 023°26'0 0.0
2018-Aug-15 20:19N 37°45' E 023°26'0 0.0
2018-Aug-15 20:00N 37°45' E 023°26'0 0.0
2018-Aug-15 19:22N 37°45' E 023°26'0 0.0
2018-Aug-15 18:59N 37°45' E 023°26'0 0.0
2018-Aug-15 18:31N 37°45' E 023°26'0 0.0
2018-Aug-15 17:58N 37°45' E 023°26'0 0.0
2018-Aug-15 17:29N 37°45' E 023°26'0 0.0
2018-Aug-15 16:58N 37°45' E 023°26'0 0.0
2018-Aug-15 16:28N 37°45' E 023°26'0 0.0
2018-Aug-15 15:55N 37°45' E 023°26'0 0.0
2018-Aug-15 15:27N 37°45' E 023°26'0 0.0
2018-Aug-15 15:00N 37°45' E 023°26'0 0.0
2018-Aug-15 14:30N 37°45' E 023°26'1 2.7
2018-Aug-15 14:00N 37°46' E 023°25'3 5.1
2018-Aug-15 13:31N 37°48' E 023°27'2 4.9
2018-Aug-15 13:01N 37°50' E 023°29'2 4.9
2018-Aug-15 12:30N 37°52' E 023°30'3 5.1
2018-Aug-15 12:00N 37°54' E 023°32'3 5.3
2018-Aug-15 11:31N 37°56' E 023°34'2 3.3
2018-Aug-15 11:01N 37°58' E 023°33'2 5.0
2018-Aug-15 10:31N 38°00' E 023°33'3 1.2
2018-Aug-15 08:25N 38°02' E 023°35'0 0.0
2018-Aug-15 07:58N 38°02' E 023°35'0 0.0
2018-Aug-15 07:30N 38°02' E 023°35'2 3.6
2018-Aug-15 07:00N 38°01' E 023°34'3 6.1
2018-Aug-15 06:30N 37°58' E 023°33'2 4.0
2018-Aug-15 06:00N 37°56' E 023°34'3 6.4
2018-Aug-15 05:30N 37°53' E 023°31'3 6.6
2018-Aug-15 05:00N 37°50' E 023°29'3 6.6
2018-Aug-15 04:30N 37°48' E 023°27'3 6.1
2018-Aug-15 04:00N 37°45' E 023°25'0 0.7
2018-Aug-15 03:22N 37°45' E 023°26'0 0.0
2018-Aug-15 02:58N 37°45' E 023°26'0 0.0
2018-Aug-15 02:28N 37°45' E 023°26'0 0.0
2018-Aug-15 01:58N 37°45' E 023°26'0 0.0
2018-Aug-14 23:53N 37°45' E 023°26'0 0.0
2018-Aug-14 23:21N 37°45' E 023°26'0 0.0
2018-Aug-14 22:59N 37°45' E 023°26'0 0.0
2018-Aug-14 22:01N 37°45' E 023°26'0 0.0
2018-Aug-14 21:49N 37°45' E 023°26'0 0.0
2018-Aug-14 21:25N 37°45' E 023°26'0 0.0
2018-Aug-14 21:00N 37°45' E 023°26'0 0.0
2018-Aug-14 20:27N 37°45' E 023°26'0 0.0
2018-Aug-14 20:00N 37°45' E 023°26'0 0.0
2018-Aug-14 18:43N 37°45' E 023°26'0 0.0
2018-Aug-14 18:25N 37°45' E 023°26'0 0.0
2018-Aug-14 17:55N 37°45' E 023°26'0 0.0
2018-Aug-14 17:23N 37°45' E 023°26'0 0.0
2018-Aug-14 16:57N 37°45' E 023°26'0 0.0
2018-Aug-14 16:29N 37°45' E 023°26'0 0.0
2018-Aug-14 16:00N 37°45' E 023°26'0 0.0
2018-Aug-14 15:27N 37°45' E 023°26'0 0.0
2018-Aug-14 14:59N 37°45' E 023°26'0 0.0
2018-Aug-14 14:28N 37°45' E 023°26'1 2.6
2018-Aug-14 14:00N 37°46' E 023°25'3 5.1
2018-Aug-14 13:30N 37°48' E 023°27'2 4.9
2018-Aug-14 13:00N 37°50' E 023°28'2 4.9
2018-Aug-14 12:30N 37°52' E 023°30'3 5.1
2018-Aug-14 12:00N 37°54' E 023°32'3 5.2
2018-Aug-14 11:30N 37°56' E 023°34'2 3.1
2018-Aug-14 11:00N 37°57' E 023°33'2 4.8
2018-Aug-14 10:30N 37°60' E 023°33'3 5.1
2018-Aug-14 10:00N 38°02' E 023°35'0 0.4
2018-Aug-14 09:29N 38°02' E 023°35'0 0.0
2018-Aug-14 08:59N 38°02' E 023°35'0 0.0
2018-Aug-14 08:23N 38°02' E 023°35'0 0.0
2018-Aug-14 07:59N 38°02' E 023°35'0 0.0
2018-Aug-14 07:30N 38°02' E 023°35'1 1.8
2018-Aug-14 07:00N 38°01' E 023°35'3 6.4
2018-Aug-14 06:30N 37°58' E 023°33'2 4.8
2018-Aug-14 06:00N 37°56' E 023°34'3 6.4
2018-Aug-14 05:30N 37°54' E 023°32'3 6.4
2018-Aug-14 05:00N 37°51' E 023°30'3 6.6
2018-Aug-14 04:30N 37°49' E 023°27'3 6.5
2018-Aug-14 04:00N 37°46' E 023°25'1 2.4
2018-Aug-14 03:28N 37°45' E 023°26'0 0.0
2018-Aug-14 02:53N 37°45' E 023°26'0 0.0
2018-Aug-14 02:29N 37°45' E 023°26'0 0.0
2018-Aug-14 01:59N 37°45' E 023°26'0 0.0
2018-Aug-14 01:29N 37°45' E 023°26'0 0.0
2018-Aug-14 00:58N 37°45' E 023°26'0 0.0
2018-Aug-14 00:30N 37°45' E 023°26'0 0.0
2018-Aug-13 23:59N 37°45' E 023°26'0 0.0
2018-Aug-13 23:27N 37°45' E 023°26'0 0.0
2018-Aug-13 22:55N 37°45' E 023°26'0 0.0
2018-Aug-13 22:25N 37°45' E 023°26'0 0.0
2018-Aug-13 21:57N 37°45' E 023°26'0 0.0
2018-Aug-13 21:25N 37°45' E 023°26'0 0.0
2018-Aug-13 20:55N 37°45' E 023°26'0 0.0
2018-Aug-13 20:28N 37°45' E 023°26'0 0.0
2018-Aug-13 19:58N 37°45' E 023°26'0 0.0
2018-Aug-13 19:30N 37°45' E 023°26'0 0.0
2018-Aug-13 18:56N 37°45' E 023°26'0 0.0
2018-Aug-13 18:28N 37°45' E 023°26'0 0.0
2018-Aug-13 17:58N 37°45' E 023°26'0 0.0
2018-Aug-13 17:30N 37°45' E 023°26'0 0.0
2018-Aug-13 16:58N 37°45' E 023°26'0 0.0
2018-Aug-13 16:29N 37°45' E 023°26'0 0.0
2018-Aug-13 15:58N 37°45' E 023°26'0 0.0
2018-Aug-13 15:28N 37°45' E 023°26'0 0.0
2018-Aug-13 14:58N 37°45' E 023°26'0 0.0
2018-Aug-13 14:30N 37°45' E 023°26'1 1.1
2018-Aug-13 14:00N 37°45' E 023°25'2 4.8
2018-Aug-13 13:30N 37°47' E 023°26'2 5.0
2018-Aug-13 13:00N 37°49' E 023°28'3 5.1
2018-Aug-13 12:30N 37°51' E 023°30'3 5.5
2018-Aug-13 12:00N 37°54' E 023°32'3 5.4
2018-Aug-13 11:30N 37°56' E 023°34'2 3.1
2018-Aug-13 11:00N 37°57' E 023°34'2 4.4
2018-Aug-13 10:31N 37°59' E 023°33'3 5.0
2018-Aug-13 10:01N 38°02' E 023°35'1 0.2
2018-Aug-13 07:07N 38°02' E 023°35'0 3.9
2018-Aug-13 07:01N 38°02' E 023°35'3 6.5
2018-Aug-13 06:30N 37°59' E 023°33'3 5.4
2018-Aug-13 06:00N 37°57' E 023°35'3 6.6
2018-Aug-13 05:31N 37°54' E 023°32'3 6.5
2018-Aug-13 05:00N 37°51' E 023°30'3 6.5
2018-Aug-13 04:30N 37°49' E 023°27'3 6.5
2018-Aug-13 04:00N 37°46' E 023°25'2 0.1
2018-Aug-12 13:58N 37°45' E 023°25'2 4.7
2018-Aug-12 13:30N 37°47' E 023°26'3 5.2
2018-Aug-12 13:00N 37°49' E 023°27'3 5.3
2018-Aug-12 12:31N 37°51' E 023°29'3 5.5
2018-Aug-12 12:00N 37°53' E 023°31'3 5.4
2018-Aug-12 11:30N 37°55' E 023°33'2 3.4
2018-Aug-12 11:01N 37°57' E 023°34'2 4.4
2018-Aug-12 10:30N 37°59' E 023°33'2 5.0
2018-Aug-12 10:00N 38°01' E 023°34'1 1.6
2018-Aug-12 09:25N 38°02' E 023°35'0 0.0
2018-Aug-12 09:00N 38°02' E 023°35'0 0.0
2018-Aug-12 08:30N 38°02' E 023°35'0 0.0
2018-Aug-12 07:58N 38°02' E 023°35'0 0.0
2018-Aug-12 07:29N 38°02' E 023°35'0 0.7
2018-Aug-12 07:00N 38°02' E 023°35'3 6.2
2018-Aug-12 06:30N 37°59' E 023°33'3 5.5
2018-Aug-12 06:00N 37°57' E 023°35'3 6.4
2018-Aug-12 05:30N 37°54' E 023°32'3 6.3
2018-Aug-12 05:00N 37°52' E 023°30'3 6.4
2018-Aug-12 04:30N 37°49' E 023°28'3 6.5
2018-Aug-12 04:00N 37°46' E 023°25'2 0.1
2018-Aug-11 14:45N 37°45' E 023°25'1 5.0
2018-Aug-11 14:30N 37°46' E 023°25'3 5.2
2018-Aug-11 14:00N 37°48' E 023°27'3 5.3
2018-Aug-11 13:30N 37°50' E 023°29'3 5.2
2018-Aug-11 13:00N 37°52' E 023°30'3 5.4
2018-Aug-11 12:30N 37°55' E 023°32'3 5.2
2018-Aug-11 12:00N 37°57' E 023°35'2 3.8
2018-Aug-11 11:30N 37°58' E 023°33'2 5.0
2018-Aug-11 11:00N 38°00' E 023°34'2 1.0
2018-Aug-11 08:55N 38°02' E 023°35'0 0.0
2018-Aug-11 08:28N 38°02' E 023°35'0 0.0
2018-Aug-11 07:58N 38°02' E 023°35'2 3.3
2018-Aug-11 07:30N 38°01' E 023°34'3 5.8
2018-Aug-11 07:00N 37°58' E 023°33'2 4.4
2018-Aug-11 06:30N 37°56' E 023°34'3 6.0
2018-Aug-11 06:00N 37°54' E 023°32'3 6.1
2018-Aug-11 05:30N 37°51' E 023°30'3 5.7
2018-Aug-11 05:00N 37°49' E 023°28'3 5.9
2018-Aug-11 04:30N 37°47' E 023°26'2 3.6
2018-Aug-11 03:59N 37°45' E 023°26'0 0.0
2018-Aug-11 02:49N 37°45' E 023°26'0 0.0
2018-Aug-11 02:28N 37°45' E 023°26'0 0.0
2018-Aug-11 01:56N 37°45' E 023°26'0 0.0
2018-Aug-11 01:28N 37°45' E 023°26'0 0.0
2018-Aug-11 00:59N 37°45' E 023°26'0 0.0
2018-Aug-11 00:30N 37°45' E 023°26'0 0.0
2018-Aug-10 23:59N 37°45' E 023°26'0 0.0
2018-Aug-10 23:27N 37°45' E 023°26'0 0.0
2018-Aug-10 22:55N 37°45' E 023°26'0 0.0
2018-Aug-10 22:20N 37°45' E 023°26'0 0.0
2018-Aug-10 21:59N 37°45' E 023°26'0 0.0
2018-Aug-10 21:28N 37°45' E 023°26'0 0.0
2018-Aug-10 20:59N 37°45' E 023°26'0 0.0
2018-Aug-10 20:25N 37°45' E 023°26'0 0.0
2018-Aug-10 19:56N 37°45' E 023°26'0 0.0
2018-Aug-10 19:27N 37°45' E 023°26'0 0.0
2018-Aug-10 18:58N 37°45' E 023°26'0 0.0
2018-Aug-10 18:29N 37°45' E 023°26'0 0.0
2018-Aug-10 17:50N 37°45' E 023°26'0 0.0
2018-Aug-10 17:27N 37°45' E 023°26'0 0.0
2018-Aug-10 16:53N 37°45' E 023°26'0 0.0
2018-Aug-10 16:29N 37°45' E 023°26'0 0.0
2018-Aug-10 16:00N 37°45' E 023°26'0 0.0
2018-Aug-10 15:28N 37°45' E 023°26'0 0.0
2018-Aug-10 14:56N 37°45' E 023°26'0 0.2
2018-Aug-10 14:29N 37°45' E 023°26'2 3.5
2018-Aug-10 14:00N 37°46' E 023°25'3 5.1
2018-Aug-10 13:30N 37°48' E 023°27'3 5.2
2018-Aug-10 13:00N 37°51' E 023°29'3 5.2
2018-Aug-10 12:30N 37°53' E 023°31'2 5.0
2018-Aug-10 12:00N 37°55' E 023°33'3 5.1
2018-Aug-10 11:30N 37°57' E 023°35'2 4.0
2018-Aug-10 11:00N 37°58' E 023°33'2 5.0
2018-Aug-10 10:30N 38°01' E 023°34'2 1.0
2018-Aug-10 08:27N 38°02' E 023°35'0 0.0
2018-Aug-10 07:55N 38°02' E 023°35'0 0.0
2018-Aug-10 07:30N 38°02' E 023°35'2 3.5
2018-Aug-10 07:00N 38°01' E 023°34'3 6.0
2018-Aug-10 06:30N 37°58' E 023°33'2 4.2
2018-Aug-10 06:00N 37°56' E 023°34'3 6.2
2018-Aug-10 05:30N 37°53' E 023°32'3 5.9
2018-Aug-10 05:00N 37°51' E 023°29'  
Track history (hours):
 
Tides and Currents Weather Stations Pressure Air Temp Water Temp Dewpoint Dewpoint Depression Visibility Wind Speed Wind Dir Waves Ship Positions

Aegina II

Last reported at 2018-Aug-19 14:20 UTC. Time now 2018-Aug-19 22:53 UTC.
Position N 37°45' E 023°25'.

Length 53 m; draft 5.5 m.

Type: Tanker. MMSI: 237096700.

Date/timePositionNaut miles runAvg speedWind from/ knotsBaromVisibWave heightAir tempDewpointWater temp
2018-Aug-19 14:20N 37°45' E 023°25'2 4.8
2018-Aug-19 14:00N 37°46' E 023°25'3 5.0
2018-Aug-19 13:30N 37°48' E 023°27'2 5.0
2018-Aug-19 13:00N 37°50' E 023°29'3 5.1
2018-Aug-19 12:30N 37°53' E 023°30'3 5.1
2018-Aug-19 12:00N 37°55' E 023°33'3 5.1
2018-Aug-19 11:30N 37°57' E 023°35'2 3.9
2018-Aug-19 11:00N 37°58' E 023°33'3 5.1
2018-Aug-19 10:30N 38°01' E 023°34'2 3.8
2018-Aug-19 09:58N 38°02' E 023°35'0 0.0
2018-Aug-19 09:28N 38°02' E 023°35'0 0.0
2018-Aug-19 08:58N 38°02' E 023°35'0 0.0
2018-Aug-19 08:29N 38°02' E 023°35'0 0.0
2018-Aug-19 08:00N 38°02' E 023°35'0 0.0
2018-Aug-19 07:27N 38°02' E 023°35'1 3.2
2018-Aug-19 07:00N 38°01' E 023°34'3 5.9
2018-Aug-19 06:30N 37°58' E 023°33'2 4.4
2018-Aug-19 06:00N 37°56' E 023°34'3 6.1
2018-Aug-19 05:30N 37°54' E 023°32'3 6.3
2018-Aug-19 05:00N 37°51' E 023°30'3 6.3
2018-Aug-19 04:30N 37°49' E 023°27'4 0.3
2018-Aug-18 14:08N 37°45' E 023°25'1 4.9
2018-Aug-18 14:00N 37°45' E 023°25'2 4.9
2018-Aug-18 13:31N 37°47' E 023°26'3 5.2
2018-Aug-18 13:01N 37°50' E 023°28'3 5.2
2018-Aug-18 12:30N 37°52' E 023°30'3 5.2
2018-Aug-18 12:00N 37°54' E 023°32'3 5.1
2018-Aug-18 11:30N 37°56' E 023°34'2 3.0
2018-Aug-18 11:00N 37°57' E 023°33'2 4.8
2018-Aug-18 10:30N 37°60' E 023°33'3 5.1
2018-Aug-18 10:00N 38°02' E 023°35'0 0.1
2018-Aug-18 07:12N 38°02' E 023°35'1 5.6
2018-Aug-18 07:00N 38°01' E 023°34'3 6.2
2018-Aug-18 06:30N 37°58' E 023°33'2 4.7
2018-Aug-18 06:00N 37°56' E 023°34'3 6.4
2018-Aug-18 05:30N 37°54' E 023°32'3 6.2
2018-Aug-18 05:00N 37°51' E 023°30'3 6.6
2018-Aug-18 04:30N 37°48' E 023°27'3 6.3
2018-Aug-18 04:00N 37°46' E 023°25'1 2.3
2018-Aug-18 03:26N 37°45' E 023°26'0 0.0
2018-Aug-18 02:57N 37°45' E 023°26'0 0.0
2018-Aug-18 02:24N 37°45' E 023°26'0 0.0
2018-Aug-18 02:00N 37°45' E 023°26'0 0.0
2018-Aug-18 01:22N 37°45' E 023°26'0 0.0
2018-Aug-18 00:58N 37°45' E 023°26'0 0.0
2018-Aug-18 00:29N 37°45' E 023°26'0 0.0
2018-Aug-17 22:17N 37°45' E 023°26'0 0.0
2018-Aug-17 21:59N 37°45' E 023°26'0 0.0
2018-Aug-17 21:15N 37°45' E 023°26'0 0.0
2018-Aug-17 21:00N 37°45' E 023°26'0 0.0
2018-Aug-17 20:28N 37°45' E 023°26'0 0.0
2018-Aug-17 19:58N 37°45' E 023°26'0 0.0
2018-Aug-17 19:30N 37°45' E 023°26'0 0.0
2018-Aug-17 19:00N 37°45' E 023°26'0 0.0
2018-Aug-17 18:22N 37°45' E 023°26'0 0.0
2018-Aug-17 17:58N 37°45' E 023°26'0 0.0
2018-Aug-17 17:31N 37°45' E 023°26'0 0.0
2018-Aug-17 17:00N 37°45' E 023°26'0 0.0
2018-Aug-17 16:26N 37°45' E 023°26'0 0.0
2018-Aug-17 15:59N 37°45' E 023°26'0 0.0
2018-Aug-17 15:26N 37°45' E 023°26'0 0.0
2018-Aug-17 14:56N 37°45' E 023°26'1 1.4
2018-Aug-17 14:00N 37°46' E 023°25'3 5.1
2018-Aug-17 13:30N 37°48' E 023°27'2 4.8
2018-Aug-17 13:01N 37°50' E 023°28'2 4.6
2018-Aug-17 12:30N 37°52' E 023°30'2 4.7
2018-Aug-17 12:01N 37°54' E 023°32'2 4.7
2018-Aug-17 11:31N 37°56' E 023°34'2 3.2
2018-Aug-17 11:00N 37°57' E 023°34'2 4.3
2018-Aug-17 10:30N 37°59' E 023°33'2 5.0
2018-Aug-17 10:01N 38°01' E 023°34'1 0.5
2018-Aug-17 07:56N 38°02' E 023°35'0 0.0
2018-Aug-17 07:24N 38°02' E 023°35'0 0.1
2018-Aug-17 07:01N 38°02' E 023°35'3 6.3
2018-Aug-17 06:31N 37°59' E 023°33'3 5.5
2018-Aug-17 06:01N 37°57' E 023°35'3 6.4
2018-Aug-17 05:30N 37°54' E 023°32'3 6.8
2018-Aug-17 05:01N 37°52' E 023°30'3 6.7
2018-Aug-17 04:31N 37°49' E 023°28'3 6.6
2018-Aug-17 04:01N 37°46' E 023°25'1 2.3
2018-Aug-17 03:21N 37°45' E 023°26'0 0.0
2018-Aug-17 00:25N 37°45' E 023°26'0 0.0
2018-Aug-16 23:55N 37°45' E 023°26'0 0.0
2018-Aug-16 23:30N 37°45' E 023°26'0 0.0
2018-Aug-16 23:00N 37°45' E 023°26'0 0.0
2018-Aug-16 22:24N 37°45' E 023°26'0 0.0
2018-Aug-16 21:48N 37°45' E 023°26'0 0.0
2018-Aug-16 21:29N 37°45' E 023°26'0 0.0
2018-Aug-16 17:41N 37°45' E 023°26'0 0.0
2018-Aug-16 17:17N 37°45' E 023°26'0 0.0
2018-Aug-16 17:00N 37°45' E 023°26'0 0.0
2018-Aug-16 16:18N 37°45' E 023°26'0 0.0
2018-Aug-16 15:44N 37°45' E 023°26'0 0.0
2018-Aug-16 15:29N 37°45' E 023°26'0 0.0
2018-Aug-16 14:38N 37°45' E 023°26'0 2.7
2018-Aug-16 14:30N 37°45' E 023°25'2 4.4
2018-Aug-16 14:00N 37°47' E 023°26'2 4.9
2018-Aug-16 13:30N 37°49' E 023°27'2 4.8
2018-Aug-16 13:00N 37°51' E 023°29'2 4.8
2018-Aug-16 12:30N 37°53' E 023°31'2 4.8
2018-Aug-16 12:00N 37°55' E 023°33'2 4.8
2018-Aug-16 11:30N 37°57' E 023°35'2 3.9
2018-Aug-16 11:00N 37°58' E 023°33'3 5.0
2018-Aug-16 10:30N 38°00' E 023°34'2 0.9
2018-Aug-16 08:08N 38°02' E 023°35'0 0.0
2018-Aug-16 07:59N 38°02' E 023°35'0 0.0
2018-Aug-16 07:28N 38°02' E 023°35'1 1.3
2018-Aug-16 07:01N 38°02' E 023°35'3 6.3
2018-Aug-16 06:30N 37°59' E 023°33'3 5.2
2018-Aug-16 06:00N 37°57' E 023°35'3 6.6
2018-Aug-16 05:31N 37°54' E 023°32'3 6.7
2018-Aug-16 05:01N 37°51' E 023°30'3 6.7
2018-Aug-16 04:31N 37°48' E 023°27'3 6.7
2018-Aug-16 04:01N 37°46' E 023°25'1 2.2
2018-Aug-16 03:28N 37°45' E 023°26'0 0.0
2018-Aug-16 02:58N 37°45' E 023°26'0 0.0
2018-Aug-16 02:25N 37°45' E 023°26'0 0.0
2018-Aug-16 01:58N 37°45' E 023°26'0 0.0
2018-Aug-16 01:25N 37°45' E 023°26'0 0.0
2018-Aug-16 00:57N 37°45' E 023°26'0 0.0
2018-Aug-16 00:28N 37°45' E 023°26'0 0.0
2018-Aug-15 23:58N 37°45' E 023°26'0 0.0
2018-Aug-15 23:17N 37°45' E 023°26'0 0.0
2018-Aug-15 21:23N 37°45' E 023°26'0 0.0
2018-Aug-15 20:57N 37°45' E 023°26'0 0.0
2018-Aug-15 20:19N 37°45' E 023°26'0 0.0
2018-Aug-15 20:00N 37°45' E 023°26'0 0.0
2018-Aug-15 19:22N 37°45' E 023°26'0 0.0
2018-Aug-15 18:59N 37°45' E 023°26'0 0.0
2018-Aug-15 18:31N 37°45' E 023°26'0 0.0
2018-Aug-15 17:58N 37°45' E 023°26'0 0.0
2018-Aug-15 17:29N 37°45' E 023°26'0 0.0
2018-Aug-15 16:58N 37°45' E 023°26'0 0.0
2018-Aug-15 16:28N 37°45' E 023°26'0 0.0
2018-Aug-15 15:55N 37°45' E 023°26'0 0.0
2018-Aug-15 15:27N 37°45' E 023°26'0 0.0
2018-Aug-15 15:00N 37°45' E 023°26'0 0.0
2018-Aug-15 14:30N 37°45' E 023°26'1 2.7
2018-Aug-15 14:00N 37°46' E 023°25'3 5.1
2018-Aug-15 13:31N 37°48' E 023°27'2 4.9
2018-Aug-15 13:01N 37°50' E 023°29'2 4.9
2018-Aug-15 12:30N 37°52' E 023°30'3 5.1
2018-Aug-15 12:00N 37°54' E 023°32'3 5.3
2018-Aug-15 11:31N 37°56' E 023°34'2 3.3
2018-Aug-15 11:01N 37°58' E 023°33'2 5.0
2018-Aug-15 10:31N 38°00' E 023°33'3 1.2
2018-Aug-15 08:25N 38°02' E 023°35'0 0.0
2018-Aug-15 07:58N 38°02' E 023°35'0 0.0
2018-Aug-15 07:30N 38°02' E 023°35'2 3.6
2018-Aug-15 07:00N 38°01' E 023°34'3 6.1
2018-Aug-15 06:30N 37°58' E 023°33'2 4.0
2018-Aug-15 06:00N 37°56' E 023°34'3 6.4
2018-Aug-15 05:30N 37°53' E 023°31'3 6.6
2018-Aug-15 05:00N 37°50' E 023°29'3 6.6
2018-Aug-15 04:30N 37°48' E 023°27'3 6.1
2018-Aug-15 04:00N 37°45' E 023°25'0 0.7
2018-Aug-15 03:22N 37°45' E 023°26'0 0.0
2018-Aug-15 02:58N 37°45' E 023°26'0 0.0
2018-Aug-15 02:28N 37°45' E 023°26'0 0.0
2018-Aug-15 01:58N 37°45' E 023°26'0 0.0
2018-Aug-14 23:53N 37°45' E 023°26'0 0.0
2018-Aug-14 23:21N 37°45' E 023°26'0 0.0
2018-Aug-14 22:59N 37°45' E 023°26'0 0.0
2018-Aug-14 22:01N 37°45' E 023°26'0 0.0
2018-Aug-14 21:49N 37°45' E 023°26'0 0.0
2018-Aug-14 21:25N 37°45' E 023°26'0 0.0
2018-Aug-14 21:00N 37°45' E 023°26'0 0.0
2018-Aug-14 20:27N 37°45' E 023°26'0 0.0
2018-Aug-14 20:00N 37°45' E 023°26'0 0.0
2018-Aug-14 18:43N 37°45' E 023°26'0 0.0
2018-Aug-14 18:25N 37°45' E 023°26'0 0.0
2018-Aug-14 17:55N 37°45' E 023°26'0 0.0
2018-Aug-14 17:23N 37°45' E 023°26'0 0.0
2018-Aug-14 16:57N 37°45' E 023°26'0 0.0
2018-Aug-14 16:29N 37°45' E 023°26'0 0.0
2018-Aug-14 16:00N 37°45' E 023°26'0 0.0
2018-Aug-14 15:27N 37°45' E 023°26'0 0.0
2018-Aug-14 14:59N 37°45' E 023°26'0 0.0
2018-Aug-14 14:28N 37°45' E 023°26'1 2.6
2018-Aug-14 14:00N 37°46' E 023°25'3 5.1
2018-Aug-14 13:30N 37°48' E 023°27'2 4.9
2018-Aug-14 13:00N 37°50' E 023°28'2 4.9
2018-Aug-14 12:30N 37°52' E 023°30'3 5.1
2018-Aug-14 12:00N 37°54' E 023°32'3 5.2
2018-Aug-14 11:30N 37°56' E 023°34'2 3.1
2018-Aug-14 11:00N 37°57' E 023°33'2 4.8
2018-Aug-14 10:30N 37°60' E 023°33'3 5.1
2018-Aug-14 10:00N 38°02' E 023°35'0 0.4
2018-Aug-14 09:29N 38°02' E 023°35'0 0.0
2018-Aug-14 08:59N 38°02' E 023°35'0 0.0
2018-Aug-14 08:23N 38°02' E 023°35'0 0.0
2018-Aug-14 07:59N 38°02' E 023°35'0 0.0
2018-Aug-14 07:30N 38°02' E 023°35'1 1.8
2018-Aug-14 07:00N 38°01' E 023°35'3 6.4
2018-Aug-14 06:30N 37°58' E 023°33'2 4.8
2018-Aug-14 06:00N 37°56' E 023°34'3 6.4
2018-Aug-14 05:30N 37°54' E 023°32'3 6.4
2018-Aug-14 05:00N 37°51' E 023°30'3 6.6
2018-Aug-14 04:30N 37°49' E 023°27'3 6.5
2018-Aug-14 04:00N 37°46' E 023°25'1 2.4
2018-Aug-14 03:28N 37°45' E 023°26'0 0.0
2018-Aug-14 02:53N 37°45' E 023°26'0 0.0
2018-Aug-14 02:29N 37°45' E 023°26'0 0.0
2018-Aug-14 01:59N 37°45' E 023°26'0 0.0
2018-Aug-14 01:29N 37°45' E 023°26'0 0.0
2018-Aug-14 00:58N 37°45' E 023°26'0 0.0
2018-Aug-14 00:30N 37°45' E 023°26'0 0.0
2018-Aug-13 23:59N 37°45' E 023°26'0 0.0
2018-Aug-13 23:27N 37°45' E 023°26'0 0.0
2018-Aug-13 22:55N 37°45' E 023°26'0 0.0
2018-Aug-13 22:25N 37°45' E 023°26'0 0.0
2018-Aug-13 21:57N 37°45' E 023°26'0 0.0
2018-Aug-13 21:25N 37°45' E 023°26'0 0.0
2018-Aug-13 20:55N 37°45' E 023°26'0 0.0
2018-Aug-13 20:28N 37°45' E 023°26'0 0.0
2018-Aug-13 19:58N 37°45' E 023°26'0 0.0
2018-Aug-13 19:30N 37°45' E 023°26'0 0.0
2018-Aug-13 18:56N 37°45' E 023°26'0 0.0
2018-Aug-13 18:28N 37°45' E 023°26'0 0.0
2018-Aug-13 17:58N 37°45' E 023°26'0 0.0
2018-Aug-13 17:30N 37°45' E 023°26'0 0.0
2018-Aug-13 16:58N 37°45' E 023°26'0 0.0
2018-Aug-13 16:29N 37°45' E 023°26'0 0.0
2018-Aug-13 15:58N 37°45' E 023°26'0 0.0
2018-Aug-13 15:28N 37°45' E 023°26'0 0.0
2018-Aug-13 14:58N 37°45' E 023°26'0 0.0
2018-Aug-13 14:30N 37°45' E 023°26'1 1.1
2018-Aug-13 14:00N 37°45' E 023°25'2 4.8
2018-Aug-13 13:30N 37°47' E 023°26'2 5.0
2018-Aug-13 13:00N 37°49' E 023°28'3 5.1
2018-Aug-13 12:30N 37°51' E 023°30'3 5.5
2018-Aug-13 12:00N 37°54' E 023°32'3 5.4
2018-Aug-13 11:30N 37°56' E 023°34'2 3.1
2018-Aug-13 11:00N 37°57' E 023°34'2 4.4
2018-Aug-13 10:31N 37°59' E 023°33'3 5.0
2018-Aug-13 10:01N 38°02' E 023°35'1 0.2
2018-Aug-13 07:07N 38°02' E 023°35'0 3.9
2018-Aug-13 07:01N 38°02' E 023°35'3 6.5
2018-Aug-13 06:30N 37°59' E 023°33'3 5.4
2018-Aug-13 06:00N 37°57' E 023°35'3 6.6
2018-Aug-13 05:31N 37°54' E 023°32'3 6.5
2018-Aug-13 05:00N 37°51' E 023°30'3 6.5
2018-Aug-13 04:30N 37°49' E 023°27'3 6.5
2018-Aug-13 04:00N 37°46' E 023°25'2 0.1
2018-Aug-12 13:58N 37°45' E 023°25'2 4.7
2018-Aug-12 13:30N 37°47' E 023°26'3 5.2
2018-Aug-12 13:00N 37°49' E 023°27'3 5.3
2018-Aug-12 12:31N 37°51' E 023°29'3 5.5
2018-Aug-12 12:00N 37°53' E 023°31'3 5.4
2018-Aug-12 11:30N 37°55' E 023°33'2 3.4
2018-Aug-12 11:01N 37°57' E 023°34'2 4.4
2018-Aug-12 10:30N 37°59' E 023°33'2 5.0
2018-Aug-12 10:00N 38°01' E 023°34'1 1.6
2018-Aug-12 09:25N 38°02' E 023°35'0 0.0
2018-Aug-12 09:00N 38°02' E 023°35'0 0.0
2018-Aug-12 08:30N 38°02' E 023°35'0 0.0
2018-Aug-12 07:58N 38°02' E 023°35'0 0.0
2018-Aug-12 07:29N 38°02' E 023°35'0 0.7
2018-Aug-12 07:00N 38°02' E 023°35'3 6.2
2018-Aug-12 06:30N 37°59' E 023°33'3 5.5
2018-Aug-12 06:00N 37°57' E 023°35'3 6.4
2018-Aug-12 05:30N 37°54' E 023°32'3 6.3
2018-Aug-12 05:00N 37°52' E 023°30'3 6.4
2018-Aug-12 04:30N 37°49' E 023°28'3 6.5
2018-Aug-12 04:00N 37°46' E 023°25'2 0.1
2018-Aug-11 14:45N 37°45' E 023°25'1 5.0
2018-Aug-11 14:30N 37°46' E 023°25'3 5.2
2018-Aug-11 14:00N 37°48' E 023°27'3 5.3
2018-Aug-11 13:30N 37°50' E 023°29'3 5.2
2018-Aug-11 13:00N 37°52' E 023°30'3 5.4
2018-Aug-11 12:30N 37°55' E 023°32'3 5.2
2018-Aug-11 12:00N 37°57' E 023°35'2 3.8
2018-Aug-11 11:30N 37°58' E 023°33'2 5.0
2018-Aug-11 11:00N 38°00' E 023°34'2 1.0
2018-Aug-11 08:55N 38°02' E 023°35'0 0.0
2018-Aug-11 08:28N 38°02' E 023°35'0 0.0
2018-Aug-11 07:58N 38°02' E 023°35'2 3.3
2018-Aug-11 07:30N 38°01' E 023°34'3 5.8
2018-Aug-11 07:00N 37°58' E 023°33'2 4.4
2018-Aug-11 06:30N 37°56' E 023°34'3 6.0
2018-Aug-11 06:00N 37°54' E 023°32'3 6.1
2018-Aug-11 05:30N 37°51' E 023°30'3 5.7
2018-Aug-11 05:00N 37°49' E 023°28'3 5.9
2018-Aug-11 04:30N 37°47' E 023°26'2 3.6
2018-Aug-11 03:59N 37°45' E 023°26'0 0.0
2018-Aug-11 02:49N 37°45' E 023°26'0 0.0
2018-Aug-11 02:28N 37°45' E 023°26'0 0.0
2018-Aug-11 01:56N 37°45' E 023°26'0 0.0
2018-Aug-11 01:28N 37°45' E 023°26'0 0.0
2018-Aug-11 00:59N 37°45' E 023°26'0 0.0
2018-Aug-11 00:30N 37°45' E 023°26'0 0.0
2018-Aug-10 23:59N 37°45' E 023°26'0 0.0
2018-Aug-10 23:27N 37°45' E 023°26'0 0.0
2018-Aug-10 22:55N 37°45' E 023°26'0 0.0
2018-Aug-10 22:20N 37°45' E 023°26'0 0.0
2018-Aug-10 21:59N 37°45' E 023°26'0 0.0
2018-Aug-10 21:28N 37°45' E 023°26'0 0.0
2018-Aug-10 20:59N 37°45' E 023°26'0 0.0
2018-Aug-10 20:25N 37°45' E 023°26'0 0.0
2018-Aug-10 19:56N 37°45' E 023°26'0 0.0
2018-Aug-10 19:27N 37°45' E 023°26'0 0.0
2018-Aug-10 18:58N 37°45' E 023°26'0 0.0
2018-Aug-10 18:29N 37°45' E 023°26'0 0.0
2018-Aug-10 17:50N 37°45' E 023°26'0 0.0
2018-Aug-10 17:27N 37°45' E 023°26'0 0.0
2018-Aug-10 16:53N 37°45' E 023°26'0 0.0
2018-Aug-10 16:29N 37°45' E 023°26'0 0.0
2018-Aug-10 16:00N 37°45' E 023°26'0 0.0
2018-Aug-10 15:28N 37°45' E 023°26'0 0.0
2018-Aug-10 14:56N 37°45' E 023°26'0 0.2
2018-Aug-10 14:29N 37°45' E 023°26'2 3.5
2018-Aug-10 14:00N 37°46' E 023°25'3 5.1
2018-Aug-10 13:30N 37°48' E 023°27'3 5.2
2018-Aug-10 13:00N 37°51' E 023°29'3 5.2
2018-Aug-10 12:30N 37°53' E 023°31'2 5.0
2018-Aug-10 12:00N 37°55' E 023°33'3 5.1
2018-Aug-10 11:30N 37°57' E 023°35'2 4.0
2018-Aug-10 11:00N 37°58' E 023°33'2 5.0
2018-Aug-10 10:30N 38°01' E 023°34'2 1.0
2018-Aug-10 08:27N 38°02' E 023°35'0 0.0
2018-Aug-10 07:55N 38°02' E 023°35'0 0.0
2018-Aug-10 07:30N 38°02' E 023°35'2 3.5
2018-Aug-10 07:00N 38°01' E 023°34'3 6.0
2018-Aug-10 06:30N 37°58' E 023°33'2 4.2
2018-Aug-10 06:00N 37°56' E 023°34'3 6.2
2018-Aug-10 05:30N 37°53' E 023°32'3 5.9
2018-Aug-10 05:00N 37°51' E 023°29'  

Dump ship's entire track history